sensor_id;sensor_type;location;lat;lon;timestamp;P1;durP1;ratioP1;P2;durP2;ratioP2
4563;SDS011;2294;51.818;8.484;2023-05-31T00:00:05;5.17;;;4.20;;
4563;SDS011;2294;51.818;8.484;2023-05-31T00:02:32;6.03;;;4.30;;
4563;SDS011;2294;51.818;8.484;2023-05-31T00:04:59;5.13;;;3.80;;
4563;SDS011;2294;51.818;8.484;2023-05-31T00:07:26;10.60;;;5.40;;
4563;SDS011;2294;51.818;8.484;2023-05-31T00:09:53;5.13;;;4.03;;
4563;SDS011;2294;51.818;8.484;2023-05-31T00:12:21;4.90;;;3.27;;
4563;SDS011;2294;51.818;8.484;2023-05-31T00:14:48;4.90;;;4.17;;
4563;SDS011;2294;51.818;8.484;2023-05-31T00:17:15;6.10;;;3.93;;
4563;SDS011;2294;51.818;8.484;2023-05-31T00:19:42;5.70;;;3.90;;
4563;SDS011;2294;51.818;8.484;2023-05-31T00:22:09;9.13;;;4.80;;
4563;SDS011;2294;51.818;8.484;2023-05-31T00:24:36;7.53;;;4.07;;
4563;SDS011;2294;51.818;8.484;2023-05-31T00:27:03;4.70;;;3.50;;
4563;SDS011;2294;51.818;8.484;2023-05-31T00:29:32;7.70;;;4.70;;
4563;SDS011;2294;51.818;8.484;2023-05-31T00:31:59;12.13;;;5.73;;
4563;SDS011;2294;51.818;8.484;2023-05-31T00:34:26;5.70;;;4.10;;
4563;SDS011;2294;51.818;8.484;2023-05-31T00:36:53;5.70;;;4.77;;
4563;SDS011;2294;51.818;8.484;2023-05-31T00:39:19;11.43;;;5.27;;
4563;SDS011;2294;51.818;8.484;2023-05-31T00:41:46;7.03;;;4.80;;
4563;SDS011;2294;51.818;8.484;2023-05-31T00:44:13;6.10;;;4.27;;
4563;SDS011;2294;51.818;8.484;2023-05-31T00:46:41;8.27;;;4.80;;
4563;SDS011;2294;51.818;8.484;2023-05-31T00:49:08;10.90;;;4.83;;
4563;SDS011;2294;51.818;8.484;2023-05-31T00:51:35;16.80;;;7.33;;
4563;SDS011;2294;51.818;8.484;2023-05-31T00:54:03;33.23;;;10.63;;
4563;SDS011;2294;51.818;8.484;2023-05-31T00:56:30;6.80;;;5.50;;
4563;SDS011;2294;51.818;8.484;2023-05-31T00:58:57;8.30;;;5.27;;
4563;SDS011;2294;51.818;8.484;2023-05-31T01:01:26;9.77;;;6.43;;
4563;SDS011;2294;51.818;8.484;2023-05-31T01:03:59;9.70;;;5.73;;
4563;SDS011;2294;51.818;8.484;2023-05-31T01:06:26;11.40;;;5.73;;
4563;SDS011;2294;51.818;8.484;2023-05-31T01:08:57;14.77;;;6.67;;
4563;SDS011;2294;51.818;8.484;2023-05-31T01:11:27;11.43;;;6.07;;
4563;SDS011;2294;51.818;8.484;2023-05-31T01:14:01;8.77;;;5.80;;
4563;SDS011;2294;51.818;8.484;2023-05-31T01:16:39;9.97;;;4.90;;
4563;SDS011;2294;51.818;8.484;2023-05-31T01:19:17;9.40;;;6.20;;
4563;SDS011;2294;51.818;8.484;2023-05-31T01:22:00;11.33;;;5.93;;
4563;SDS011;2294;51.818;8.484;2023-05-31T01:24:41;7.00;;;5.20;;
4563;SDS011;2294;51.818;8.484;2023-05-31T01:27:19;9.90;;;5.70;;
4563;SDS011;2294;51.818;8.484;2023-05-31T01:29:47;8.40;;;5.83;;
4563;SDS011;2294;51.818;8.484;2023-05-31T01:32:15;11.73;;;5.93;;
4563;SDS011;2294;51.818;8.484;2023-05-31T01:34:44;12.40;;;6.10;;
4563;SDS011;2294;51.818;8.484;2023-05-31T01:37:11;7.47;;;5.27;;
4563;SDS011;2294;51.818;8.484;2023-05-31T01:39:37;8.53;;;5.30;;
4563;SDS011;2294;51.818;8.484;2023-05-31T01:42:05;7.10;;;5.40;;
4563;SDS011;2294;51.818;8.484;2023-05-31T01:44:35;6.30;;;5.57;;
4563;SDS011;2294;51.818;8.484;2023-05-31T01:47:05;8.80;;;5.27;;
4563;SDS011;2294;51.818;8.484;2023-05-31T01:49:35;5.63;;;4.87;;
4563;SDS011;2294;51.818;8.484;2023-05-31T01:52:04;6.30;;;5.43;;
4563;SDS011;2294;51.818;8.484;2023-05-31T01:54:32;11.47;;;5.50;;
4563;SDS011;2294;51.818;8.484;2023-05-31T01:57:00;7.77;;;5.20;;
4563;SDS011;2294;51.818;8.484;2023-05-31T01:59:38;7.10;;;4.97;;
4563;SDS011;2294;51.818;8.484;2023-05-31T02:02:06;8.53;;;4.97;;
4563;SDS011;2294;51.818;8.484;2023-05-31T02:04:33;10.53;;;5.37;;
4563;SDS011;2294;51.818;8.484;2023-05-31T02:07:00;10.50;;;5.30;;
4563;SDS011;2294;51.818;8.484;2023-05-31T02:09:27;8.80;;;5.20;;
4563;SDS011;2294;51.818;8.484;2023-05-31T02:11:54;7.23;;;5.40;;
4563;SDS011;2294;51.818;8.484;2023-05-31T02:14:21;10.20;;;5.90;;
4563;SDS011;2294;51.818;8.484;2023-05-31T02:16:49;8.30;;;5.67;;
4563;SDS011;2294;51.818;8.484;2023-05-31T02:19:16;8.23;;;6.20;;
4563;SDS011;2294;51.818;8.484;2023-05-31T02:21:44;8.10;;;5.20;;
4563;SDS011;2294;51.818;8.484;2023-05-31T02:24:11;9.53;;;5.50;;
4563;SDS011;2294;51.818;8.484;2023-05-31T02:26:38;10.33;;;6.67;;
4563;SDS011;2294;51.818;8.484;2023-05-31T02:29:04;8.67;;;6.30;;
4563;SDS011;2294;51.818;8.484;2023-05-31T02:31:31;10.80;;;7.17;;
4563;SDS011;2294;51.818;8.484;2023-05-31T02:34:00;9.73;;;6.30;;
4563;SDS011;2294;51.818;8.484;2023-05-31T02:36:27;10.23;;;6.60;;
4563;SDS011;2294;51.818;8.484;2023-05-31T02:38:55;7.67;;;5.87;;
4563;SDS011;2294;51.818;8.484;2023-05-31T02:41:22;8.30;;;6.40;;
4563;SDS011;2294;51.818;8.484;2023-05-31T02:43:49;8.73;;;6.00;;
4563;SDS011;2294;51.818;8.484;2023-05-31T02:46:16;7.13;;;5.53;;
4563;SDS011;2294;51.818;8.484;2023-05-31T02:48:42;7.33;;;5.43;;
4563;SDS011;2294;51.818;8.484;2023-05-31T02:51:11;7.63;;;5.73;;
4563;SDS011;2294;51.818;8.484;2023-05-31T02:53:37;9.23;;;6.40;;
4563;SDS011;2294;51.818;8.484;2023-05-31T02:56:05;9.40;;;6.17;;
4563;SDS011;2294;51.818;8.484;2023-05-31T02:58:33;9.10;;;5.37;;
4563;SDS011;2294;51.818;8.484;2023-05-31T03:01:00;8.77;;;5.93;;
4563;SDS011;2294;51.818;8.484;2023-05-31T03:03:27;10.70;;;6.90;;
4563;SDS011;2294;51.818;8.484;2023-05-31T03:05:54;8.50;;;6.30;;
4563;SDS011;2294;51.818;8.484;2023-05-31T03:08:22;9.10;;;6.10;;
4563;SDS011;2294;51.818;8.484;2023-05-31T03:10:49;11.33;;;6.90;;
4563;SDS011;2294;51.818;8.484;2023-05-31T03:13:16;10.27;;;7.00;;
4563;SDS011;2294;51.818;8.484;2023-05-31T03:15:43;9.30;;;6.60;;
4563;SDS011;2294;51.818;8.484;2023-05-31T03:18:10;10.63;;;6.97;;
4563;SDS011;2294;51.818;8.484;2023-05-31T03:20:37;9.40;;;6.40;;
4563;SDS011;2294;51.818;8.484;2023-05-31T03:23:04;8.53;;;6.40;;
4563;SDS011;2294;51.818;8.484;2023-05-31T03:25:33;9.73;;;7.23;;
4563;SDS011;2294;51.818;8.484;2023-05-31T03:28:00;10.60;;;7.73;;
4563;SDS011;2294;51.818;8.484;2023-05-31T03:30:27;10.90;;;7.10;;
4563;SDS011;2294;51.818;8.484;2023-05-31T03:32:54;11.37;;;7.43;;
4563;SDS011;2294;51.818;8.484;2023-05-31T03:35:21;12.03;;;7.90;;
4563;SDS011;2294;51.818;8.484;2023-05-31T03:37:48;10.53;;;7.60;;
4563;SDS011;2294;51.818;8.484;2023-05-31T03:40:15;20.80;;;7.33;;
4563;SDS011;2294;51.818;8.484;2023-05-31T03:42:43;10.70;;;7.77;;
4563;SDS011;2294;51.818;8.484;2023-05-31T03:45:10;11.37;;;7.87;;
4563;SDS011;2294;51.818;8.484;2023-05-31T03:47:37;9.17;;;7.07;;
4563;SDS011;2294;51.818;8.484;2023-05-31T03:50:04;10.13;;;6.70;;
4563;SDS011;2294;51.818;8.484;2023-05-31T03:52:32;13.13;;;7.50;;
4563;SDS011;2294;51.818;8.484;2023-05-31T03:55:02;9.47;;;6.70;;
4563;SDS011;2294;51.818;8.484;2023-05-31T03:57:29;19.70;;;8.33;;
4563;SDS011;2294;51.818;8.484;2023-05-31T03:59:57;11.00;;;6.87;;
4563;SDS011;2294;51.818;8.484;2023-05-31T04:02:25;10.93;;;7.07;;
4563;SDS011;2294;51.818;8.484;2023-05-31T04:04:52;13.50;;;7.87;;
4563;SDS011;2294;51.818;8.484;2023-05-31T04:07:19;10.80;;;7.50;;
4563;SDS011;2294;51.818;8.484;2023-05-31T04:09:46;11.97;;;7.13;;
4563;SDS011;2294;51.818;8.484;2023-05-31T04:12:12;10.47;;;7.27;;
4563;SDS011;2294;51.818;8.484;2023-05-31T04:14:39;13.90;;;8.80;;
4563;SDS011;2294;51.818;8.484;2023-05-31T04:17:08;12.97;;;7.33;;
4563;SDS011;2294;51.818;8.484;2023-05-31T04:19:34;11.00;;;7.67;;
4563;SDS011;2294;51.818;8.484;2023-05-31T04:22:01;18.37;;;8.47;;
4563;SDS011;2294;51.818;8.484;2023-05-31T04:24:28;14.33;;;7.83;;
4563;SDS011;2294;51.818;8.484;2023-05-31T04:26:55;16.37;;;9.67;;
4563;SDS011;2294;51.818;8.484;2023-05-31T04:29:22;13.93;;;8.03;;
4563;SDS011;2294;51.818;8.484;2023-05-31T04:31:51;17.50;;;9.20;;
4563;SDS011;2294;51.818;8.484;2023-05-31T04:34:19;18.27;;;8.23;;
4563;SDS011;2294;51.818;8.484;2023-05-31T04:36:46;10.80;;;7.70;;
4563;SDS011;2294;51.818;8.484;2023-05-31T04:39:14;11.10;;;8.37;;
4563;SDS011;2294;51.818;8.484;2023-05-31T04:41:42;16.40;;;8.67;;
4563;SDS011;2294;51.818;8.484;2023-05-31T04:44:09;13.10;;;8.90;;
4563;SDS011;2294;51.818;8.484;2023-05-31T04:46:36;14.33;;;8.93;;
4563;SDS011;2294;51.818;8.484;2023-05-31T04:49:05;15.80;;;8.57;;
4563;SDS011;2294;51.818;8.484;2023-05-31T04:51:34;16.23;;;9.40;;
4563;SDS011;2294;51.818;8.484;2023-05-31T04:54:01;17.00;;;9.07;;
4563;SDS011;2294;51.818;8.484;2023-05-31T04:56:28;14.97;;;9.13;;
4563;SDS011;2294;51.818;8.484;2023-05-31T04:58:55;17.63;;;10.27;;
4563;SDS011;2294;51.818;8.484;2023-05-31T05:01:22;14.97;;;9.10;;
4563;SDS011;2294;51.818;8.484;2023-05-31T05:03:49;16.17;;;9.43;;
4563;SDS011;2294;51.818;8.484;2023-05-31T05:06:18;14.60;;;8.23;;
4563;SDS011;2294;51.818;8.484;2023-05-31T05:08:46;17.70;;;9.90;;
4563;SDS011;2294;51.818;8.484;2023-05-31T05:11:13;14.50;;;9.07;;
4563;SDS011;2294;51.818;8.484;2023-05-31T05:13:40;15.17;;;8.27;;
4563;SDS011;2294;51.818;8.484;2023-05-31T05:16:09;12.43;;;8.50;;
4563;SDS011;2294;51.818;8.484;2023-05-31T05:18:36;13.10;;;8.53;;
4563;SDS011;2294;51.818;8.484;2023-05-31T05:21:03;17.23;;;9.87;;
4563;SDS011;2294;51.818;8.484;2023-05-31T05:23:30;17.13;;;8.80;;
4563;SDS011;2294;51.818;8.484;2023-05-31T05:26:01;15.60;;;8.83;;
4563;SDS011;2294;51.818;8.484;2023-05-31T05:28:28;12.73;;;8.67;;
4563;SDS011;2294;51.818;8.484;2023-05-31T05:30:55;12.50;;;8.30;;
4563;SDS011;2294;51.818;8.484;2023-05-31T05:33:22;18.83;;;9.00;;
4563;SDS011;2294;51.818;8.484;2023-05-31T05:38:16;16.80;;;8.50;;
4563;SDS011;2294;51.818;8.484;2023-05-31T05:40:43;20.47;;;8.97;;
4563;SDS011;2294;51.818;8.484;2023-05-31T05:43:11;13.23;;;9.03;;
4563;SDS011;2294;51.818;8.484;2023-05-31T05:45:39;10.93;;;7.70;;
4563;SDS011;2294;51.818;8.484;2023-05-31T05:48:09;13.93;;;8.43;;
4563;SDS011;2294;51.818;8.484;2023-05-31T05:50:40;12.43;;;7.40;;
4563;SDS011;2294;51.818;8.484;2023-05-31T05:53:07;18.30;;;9.43;;
4563;SDS011;2294;51.818;8.484;2023-05-31T05:55:34;20.23;;;9.00;;
4563;SDS011;2294;51.818;8.484;2023-05-31T05:58:01;16.73;;;8.00;;
4563;SDS011;2294;51.818;8.484;2023-05-31T06:00:29;13.03;;;7.30;;
4563;SDS011;2294;51.818;8.484;2023-05-31T06:02:57;10.10;;;7.50;;
4563;SDS011;2294;51.818;8.484;2023-05-31T06:05:24;12.60;;;8.20;;
4563;SDS011;2294;51.818;8.484;2023-05-31T06:07:51;13.43;;;7.67;;
4563;SDS011;2294;51.818;8.484;2023-05-31T06:10:19;20.23;;;8.03;;
4563;SDS011;2294;51.818;8.484;2023-05-31T06:12:46;12.27;;;7.90;;
4563;SDS011;2294;51.818;8.484;2023-05-31T06:15:13;13.47;;;8.50;;
4563;SDS011;2294;51.818;8.484;2023-05-31T06:17:41;12.30;;;6.50;;
4563;SDS011;2294;51.818;8.484;2023-05-31T06:20:08;13.73;;;8.40;;
4563;SDS011;2294;51.818;8.484;2023-05-31T06:22:36;13.30;;;8.07;;
4563;SDS011;2294;51.818;8.484;2023-05-31T06:25:03;12.70;;;7.00;;
4563;SDS011;2294;51.818;8.484;2023-05-31T06:27:30;13.43;;;6.90;;
4563;SDS011;2294;51.818;8.484;2023-05-31T06:29:57;14.23;;;6.70;;
4563;SDS011;2294;51.818;8.484;2023-05-31T06:32:24;12.17;;;7.20;;
4563;SDS011;2294;51.818;8.484;2023-05-31T06:34:53;13.17;;;6.40;;
4563;SDS011;2294;51.818;8.484;2023-05-31T06:37:20;17.30;;;7.20;;
4563;SDS011;2294;51.818;8.484;2023-05-31T06:39:48;15.83;;;7.50;;
4563;SDS011;2294;51.818;8.484;2023-05-31T06:42:15;13.23;;;6.87;;
4563;SDS011;2294;51.818;8.484;2023-05-31T06:44:42;15.67;;;6.93;;
4563;SDS011;2294;51.818;8.484;2023-05-31T06:47:09;13.23;;;7.13;;
4563;SDS011;2294;51.818;8.484;2023-05-31T06:49:36;17.90;;;7.10;;
4563;SDS011;2294;51.818;8.484;2023-05-31T06:52:05;13.17;;;7.60;;
4563;SDS011;2294;51.818;8.484;2023-05-31T06:54:33;9.47;;;5.97;;
4563;SDS011;2294;51.818;8.484;2023-05-31T06:57:01;12.10;;;6.77;;
4563;SDS011;2294;51.818;8.484;2023-05-31T06:59:28;14.93;;;6.50;;
4563;SDS011;2294;51.818;8.484;2023-05-31T07:01:55;13.30;;;6.03;;
4563;SDS011;2294;51.818;8.484;2023-05-31T07:04:22;16.27;;;7.60;;
4563;SDS011;2294;51.818;8.484;2023-05-31T07:06:49;8.40;;;5.50;;
4563;SDS011;2294;51.818;8.484;2023-05-31T07:09:17;8.40;;;5.90;;
4563;SDS011;2294;51.818;8.484;2023-05-31T07:11:44;11.47;;;5.90;;
4563;SDS011;2294;51.818;8.484;2023-05-31T07:14:11;17.83;;;6.43;;
4563;SDS011;2294;51.818;8.484;2023-05-31T07:16:38;15.03;;;6.37;;
4563;SDS011;2294;51.818;8.484;2023-05-31T07:19:05;7.27;;;4.90;;
4563;SDS011;2294;51.818;8.484;2023-05-31T07:21:32;9.77;;;4.73;;
4563;SDS011;2294;51.818;8.484;2023-05-31T07:23:59;12.93;;;6.30;;
4563;SDS011;2294;51.818;8.484;2023-05-31T07:26:27;9.23;;;5.00;;
4563;SDS011;2294;51.818;8.484;2023-05-31T07:28:54;12.87;;;6.13;;
4563;SDS011;2294;51.818;8.484;2023-05-31T07:31:21;13.27;;;5.33;;
4563;SDS011;2294;51.818;8.484;2023-05-31T07:33:48;7.90;;;5.00;;
4563;SDS011;2294;51.818;8.484;2023-05-31T07:36:15;7.30;;;4.80;;
4563;SDS011;2294;51.818;8.484;2023-05-31T07:38:43;10.50;;;6.50;;
4563;SDS011;2294;51.818;8.484;2023-05-31T07:41:10;9.07;;;5.20;;
4563;SDS011;2294;51.818;8.484;2023-05-31T07:43:38;10.93;;;4.60;;
4563;SDS011;2294;51.818;8.484;2023-05-31T07:46:06;11.83;;;4.73;;
4563;SDS011;2294;51.818;8.484;2023-05-31T07:48:33;6.73;;;4.57;;
4563;SDS011;2294;51.818;8.484;2023-05-31T07:50:59;14.13;;;4.43;;
4563;SDS011;2294;51.818;8.484;2023-05-31T07:53:27;7.67;;;5.17;;
4563;SDS011;2294;51.818;8.484;2023-05-31T07:55:54;9.20;;;5.70;;
4563;SDS011;2294;51.818;8.484;2023-05-31T07:58:21;14.40;;;5.43;;
4563;SDS011;2294;51.818;8.484;2023-05-31T08:00:49;6.60;;;4.83;;
4563;SDS011;2294;51.818;8.484;2023-05-31T08:03:18;10.60;;;5.33;;
4563;SDS011;2294;51.818;8.484;2023-05-31T08:05:44;10.27;;;5.10;;
4563;SDS011;2294;51.818;8.484;2023-05-31T08:08:14;9.20;;;5.20;;
4563;SDS011;2294;51.818;8.484;2023-05-31T08:10:41;8.30;;;4.40;;
4563;SDS011;2294;51.818;8.484;2023-05-31T08:13:08;9.17;;;4.60;;
4563;SDS011;2294;51.818;8.484;2023-05-31T08:15:35;10.83;;;4.43;;
4563;SDS011;2294;51.818;8.484;2023-05-31T08:18:03;10.77;;;5.10;;
4563;SDS011;2294;51.818;8.484;2023-05-31T08:20:30;9.23;;;4.00;;
4563;SDS011;2294;51.818;8.484;2023-05-31T08:22:57;8.50;;;3.60;;
4563;SDS011;2294;51.818;8.484;2023-05-31T08:25:24;6.50;;;3.43;;
4563;SDS011;2294;51.818;8.484;2023-05-31T08:27:51;11.37;;;3.20;;
4563;SDS011;2294;51.818;8.484;2023-05-31T08:30:18;4.67;;;3.17;;
4563;SDS011;2294;51.818;8.484;2023-05-31T08:32:45;9.27;;;4.03;;
4563;SDS011;2294;51.818;8.484;2023-05-31T08:35:13;7.30;;;3.67;;
4563;SDS011;2294;51.818;8.484;2023-05-31T08:37:40;7.13;;;3.97;;
4563;SDS011;2294;51.818;8.484;2023-05-31T08:40:07;9.50;;;4.57;;
4563;SDS011;2294;51.818;8.484;2023-05-31T08:42:37;10.83;;;4.10;;
4563;SDS011;2294;51.818;8.484;2023-05-31T08:45:07;12.07;;;4.03;;
4563;SDS011;2294;51.818;8.484;2023-05-31T08:47:36;8.10;;;3.33;;
4563;SDS011;2294;51.818;8.484;2023-05-31T08:50:06;11.30;;;4.07;;
4563;SDS011;2294;51.818;8.484;2023-05-31T08:52:36;6.10;;;3.10;;
4563;SDS011;2294;51.818;8.484;2023-05-31T08:55:04;8.23;;;3.60;;
4563;SDS011;2294;51.818;8.484;2023-05-31T08:57:32;8.90;;;4.63;;
4563;SDS011;2294;51.818;8.484;2023-05-31T09:00:00;11.03;;;3.50;;
4563;SDS011;2294;51.818;8.484;2023-05-31T09:02:33;10.10;;;3.97;;
4563;SDS011;2294;51.818;8.484;2023-05-31T09:05:01;6.80;;;2.73;;
4563;SDS011;2294;51.818;8.484;2023-05-31T09:07:30;5.53;;;3.00;;
4563;SDS011;2294;51.818;8.484;2023-05-31T09:09:58;5.60;;;3.43;;
4563;SDS011;2294;51.818;8.484;2023-05-31T09:12:28;3.63;;;2.67;;
4563;SDS011;2294;51.818;8.484;2023-05-31T09:14:55;6.73;;;3.50;;
4563;SDS011;2294;51.818;8.484;2023-05-31T09:17:22;7.37;;;3.20;;
4563;SDS011;2294;51.818;8.484;2023-05-31T09:19:49;6.23;;;3.03;;
4563;SDS011;2294;51.818;8.484;2023-05-31T09:22:17;9.47;;;3.57;;
4563;SDS011;2294;51.818;8.484;2023-05-31T09:24:50;9.27;;;3.20;;
4563;SDS011;2294;51.818;8.484;2023-05-31T09:27:22;6.60;;;3.57;;
4563;SDS011;2294;51.818;8.484;2023-05-31T09:29:52;6.47;;;3.90;;
4563;SDS011;2294;51.818;8.484;2023-05-31T09:32:20;6.30;;;3.50;;
4563;SDS011;2294;51.818;8.484;2023-05-31T09:34:47;5.37;;;2.80;;
4563;SDS011;2294;51.818;8.484;2023-05-31T09:37:20;6.10;;;4.00;;
4563;SDS011;2294;51.818;8.484;2023-05-31T09:39:54;7.03;;;3.23;;
4563;SDS011;2294;51.818;8.484;2023-05-31T09:42:23;7.97;;;3.90;;
4563;SDS011;2294;51.818;8.484;2023-05-31T09:44:50;6.40;;;3.43;;
4563;SDS011;2294;51.818;8.484;2023-05-31T09:47:22;9.00;;;3.10;;
4563;SDS011;2294;51.818;8.484;2023-05-31T09:49:49;10.07;;;3.30;;
4563;SDS011;2294;51.818;8.484;2023-05-31T09:52:18;10.57;;;4.00;;
4563;SDS011;2294;51.818;8.484;2023-05-31T09:54:51;8.40;;;3.00;;
4563;SDS011;2294;51.818;8.484;2023-05-31T09:57:31;8.10;;;3.10;;
4563;SDS011;2294;51.818;8.484;2023-05-31T10:00:06;9.80;;;3.03;;
4563;SDS011;2294;51.818;8.484;2023-05-31T10:02:41;8.37;;;3.47;;
4563;SDS011;2294;51.818;8.484;2023-05-31T10:05:09;4.27;;;2.53;;
4563;SDS011;2294;51.818;8.484;2023-05-31T10:07:39;6.03;;;2.87;;
4563;SDS011;2294;51.818;8.484;2023-05-31T10:10:07;10.03;;;3.17;;
4563;SDS011;2294;51.818;8.484;2023-05-31T10:12:38;5.70;;;2.80;;
4563;SDS011;2294;51.818;8.484;2023-05-31T10:15:11;5.07;;;2.30;;
4563;SDS011;2294;51.818;8.484;2023-05-31T10:17:42;7.37;;;2.60;;
4563;SDS011;2294;51.818;8.484;2023-05-31T10:20:15;5.93;;;2.43;;
4563;SDS011;2294;51.818;8.484;2023-05-31T10:22:43;4.67;;;2.40;;
4563;SDS011;2294;51.818;8.484;2023-05-31T10:25:14;9.70;;;2.57;;
4563;SDS011;2294;51.818;8.484;2023-05-31T10:27:53;8.77;;;2.60;;
4563;SDS011;2294;51.818;8.484;2023-05-31T10:30:21;3.50;;;2.00;;
4563;SDS011;2294;51.818;8.484;2023-05-31T10:32:53;6.33;;;2.63;;
4563;SDS011;2294;51.818;8.484;2023-05-31T10:35:25;6.57;;;2.30;;
4563;SDS011;2294;51.818;8.484;2023-05-31T10:37:52;6.47;;;2.00;;
4563;SDS011;2294;51.818;8.484;2023-05-31T10:40:21;4.10;;;2.60;;
4563;SDS011;2294;51.818;8.484;2023-05-31T10:42:54;3.70;;;2.40;;
4563;SDS011;2294;51.818;8.484;2023-05-31T10:45:27;2.80;;;1.70;;
4563;SDS011;2294;51.818;8.484;2023-05-31T10:48:02;5.47;;;2.23;;
4563;SDS011;2294;51.818;8.484;2023-05-31T10:50:45;4.73;;;2.07;;
4563;SDS011;2294;51.818;8.484;2023-05-31T10:53:18;2.60;;;2.10;;
4563;SDS011;2294;51.818;8.484;2023-05-31T10:55:45;7.83;;;3.23;;
4563;SDS011;2294;51.818;8.484;2023-05-31T10:58:27;6.87;;;2.30;;
4563;SDS011;2294;51.818;8.484;2023-05-31T11:00:56;4.40;;;2.17;;
4563;SDS011;2294;51.818;8.484;2023-05-31T11:03:24;5.57;;;1.90;;
4563;SDS011;2294;51.818;8.484;2023-05-31T11:05:55;5.57;;;2.43;;
4563;SDS011;2294;51.818;8.484;2023-05-31T11:08:25;8.03;;;2.57;;
4563;SDS011;2294;51.818;8.484;2023-05-31T11:10:52;4.83;;;2.40;;
4563;SDS011;2294;51.818;8.484;2023-05-31T11:13:55;5.60;;;2.27;;
4563;SDS011;2294;51.818;8.484;2023-05-31T11:16:22;2.27;;;1.70;;
4563;SDS011;2294;51.818;8.484;2023-05-31T11:18:50;3.10;;;1.93;;
4563;SDS011;2294;51.818;8.484;2023-05-31T11:24:24;7.07;;;2.43;;
4563;SDS011;2294;51.818;8.484;2023-05-31T11:26:54;5.00;;;2.30;;
4563;SDS011;2294;51.818;8.484;2023-05-31T11:29:22;4.47;;;1.90;;
4563;SDS011;2294;51.818;8.484;2023-05-31T11:31:56;4.60;;;2.53;;
4563;SDS011;2294;51.818;8.484;2023-05-31T11:34:24;3.40;;;1.97;;
4563;SDS011;2294;51.818;8.484;2023-05-31T11:36:55;7.63;;;2.00;;
4563;SDS011;2294;51.818;8.484;2023-05-31T11:39:24;8.63;;;2.30;;
4563;SDS011;2294;51.818;8.484;2023-05-31T11:41:51;5.07;;;2.17;;
4563;SDS011;2294;51.818;8.484;2023-05-31T11:44:21;4.80;;;2.10;;
4563;SDS011;2294;51.818;8.484;2023-05-31T11:46:55;4.50;;;2.20;;
4563;SDS011;2294;51.818;8.484;2023-05-31T11:49:26;4.67;;;1.83;;
4563;SDS011;2294;51.818;8.484;2023-05-31T11:51:54;4.00;;;1.90;;
4563;SDS011;2294;51.818;8.484;2023-05-31T11:54:24;9.93;;;2.33;;
4563;SDS011;2294;51.818;8.484;2023-05-31T11:56:55;2.87;;;2.33;;
4563;SDS011;2294;51.818;8.484;2023-05-31T11:59:25;2.97;;;2.00;;
4563;SDS011;2294;51.818;8.484;2023-05-31T12:01:56;6.93;;;2.00;;
4563;SDS011;2294;51.818;8.484;2023-05-31T12:04:28;4.30;;;2.57;;
4563;SDS011;2294;51.818;8.484;2023-05-31T12:06:56;3.67;;;1.67;;
4563;SDS011;2294;51.818;8.484;2023-05-31T12:09:26;8.57;;;2.40;;
4563;SDS011;2294;51.818;8.484;2023-05-31T12:11:53;5.27;;;2.20;;
4563;SDS011;2294;51.818;8.484;2023-05-31T12:14:22;4.40;;;2.50;;
4563;SDS011;2294;51.818;8.484;2023-05-31T12:16:50;10.07;;;2.50;;
4563;SDS011;2294;51.818;8.484;2023-05-31T12:19:17;5.90;;;2.20;;
4563;SDS011;2294;51.818;8.484;2023-05-31T12:21:44;4.27;;;2.13;;
4563;SDS011;2294;51.818;8.484;2023-05-31T12:24:12;5.07;;;1.87;;
4563;SDS011;2294;51.818;8.484;2023-05-31T12:26:41;5.40;;;2.07;;
4563;SDS011;2294;51.818;8.484;2023-05-31T12:29:11;3.43;;;1.80;;
4563;SDS011;2294;51.818;8.484;2023-05-31T12:31:39;4.23;;;2.00;;
4563;SDS011;2294;51.818;8.484;2023-05-31T12:34:06;5.80;;;2.10;;
4563;SDS011;2294;51.818;8.484;2023-05-31T12:36:38;4.17;;;1.80;;
4563;SDS011;2294;51.818;8.484;2023-05-31T12:39:07;3.90;;;2.00;;
4563;SDS011;2294;51.818;8.484;2023-05-31T12:41:36;2.17;;;1.87;;
4563;SDS011;2294;51.818;8.484;2023-05-31T12:44:04;4.43;;;1.90;;
4563;SDS011;2294;51.818;8.484;2023-05-31T12:46:40;8.93;;;2.27;;
4563;SDS011;2294;51.818;8.484;2023-05-31T12:49:12;5.87;;;1.90;;
4563;SDS011;2294;51.818;8.484;2023-05-31T12:51:40;4.00;;;1.97;;
4563;SDS011;2294;51.818;8.484;2023-05-31T12:54:11;5.27;;;2.23;;
4563;SDS011;2294;51.818;8.484;2023-05-31T12:56:38;6.07;;;2.10;;
4563;SDS011;2294;51.818;8.484;2023-05-31T12:59:06;4.77;;;2.63;;
4563;SDS011;2294;51.818;8.484;2023-05-31T13:01:33;11.13;;;3.00;;
4563;SDS011;2294;51.818;8.484;2023-05-31T13:04:04;3.50;;;2.00;;
4563;SDS011;2294;51.818;8.484;2023-05-31T13:06:32;6.50;;;2.10;;
4563;SDS011;2294;51.818;8.484;2023-05-31T13:09:00;7.03;;;3.00;;
4563;SDS011;2294;51.818;8.484;2023-05-31T13:11:30;2.73;;;1.70;;
4563;SDS011;2294;51.818;8.484;2023-05-31T13:13:59;6.87;;;2.00;;
4563;SDS011;2294;51.818;8.484;2023-05-31T13:16:26;5.60;;;2.30;;
4563;SDS011;2294;51.818;8.484;2023-05-31T13:18:54;7.30;;;2.20;;
4563;SDS011;2294;51.818;8.484;2023-05-31T13:21:23;3.60;;;2.20;;
4563;SDS011;2294;51.818;8.484;2023-05-31T13:23:50;8.63;;;2.60;;
4563;SDS011;2294;51.818;8.484;2023-05-31T13:26:17;6.43;;;3.10;;
4563;SDS011;2294;51.818;8.484;2023-05-31T13:28:45;5.40;;;2.00;;
4563;SDS011;2294;51.818;8.484;2023-05-31T13:31:12;5.63;;;2.47;;
4563;SDS011;2294;51.818;8.484;2023-05-31T13:33:39;5.60;;;2.13;;
4563;SDS011;2294;51.818;8.484;2023-05-31T13:36:06;4.40;;;2.43;;
4563;SDS011;2294;51.818;8.484;2023-05-31T13:38:35;3.97;;;2.43;;
4563;SDS011;2294;51.818;8.484;2023-05-31T13:41:01;9.73;;;2.13;;
4563;SDS011;2294;51.818;8.484;2023-05-31T13:43:30;8.97;;;2.20;;
4563;SDS011;2294;51.818;8.484;2023-05-31T13:45:59;4.97;;;2.20;;
4563;SDS011;2294;51.818;8.484;2023-05-31T13:48:26;4.53;;;2.90;;
4563;SDS011;2294;51.818;8.484;2023-05-31T13:50:53;4.33;;;1.60;;
4563;SDS011;2294;51.818;8.484;2023-05-31T13:53:20;6.27;;;2.70;;
4563;SDS011;2294;51.818;8.484;2023-05-31T13:55:49;5.20;;;2.10;;
4563;SDS011;2294;51.818;8.484;2023-05-31T13:58:16;12.80;;;2.07;;
4563;SDS011;2294;51.818;8.484;2023-05-31T14:00:43;3.10;;;1.63;;
4563;SDS011;2294;51.818;8.484;2023-05-31T14:03:10;3.93;;;2.17;;
4563;SDS011;2294;51.818;8.484;2023-05-31T14:05:37;3.40;;;2.43;;
4563;SDS011;2294;51.818;8.484;2023-05-31T14:08:04;6.33;;;2.30;;
4563;SDS011;2294;51.818;8.484;2023-05-31T14:10:32;9.10;;;2.00;;
4563;SDS011;2294;51.818;8.484;2023-05-31T14:13:01;5.27;;;2.00;;
4563;SDS011;2294;51.818;8.484;2023-05-31T14:15:28;8.57;;;2.50;;
4563;SDS011;2294;51.818;8.484;2023-05-31T14:17:54;5.03;;;1.73;;
4563;SDS011;2294;51.818;8.484;2023-05-31T14:20:21;4.77;;;2.03;;
4563;SDS011;2294;51.818;8.484;2023-05-31T14:22:48;12.87;;;2.63;;
4563;SDS011;2294;51.818;8.484;2023-05-31T14:25:15;4.80;;;2.43;;
4563;SDS011;2294;51.818;8.484;2023-05-31T14:27:42;8.73;;;2.07;;
4563;SDS011;2294;51.818;8.484;2023-05-31T14:30:11;7.50;;;2.60;;
4563;SDS011;2294;51.818;8.484;2023-05-31T14:32:38;5.90;;;1.70;;
4563;SDS011;2294;51.818;8.484;2023-05-31T14:35:05;5.70;;;1.87;;
4563;SDS011;2294;51.818;8.484;2023-05-31T14:37:35;5.13;;;2.40;;
4563;SDS011;2294;51.818;8.484;2023-05-31T14:40:02;7.20;;;2.53;;
4563;SDS011;2294;51.818;8.484;2023-05-31T14:42:30;6.20;;;2.20;;
4563;SDS011;2294;51.818;8.484;2023-05-31T14:44:57;4.70;;;1.93;;
4563;SDS011;2294;51.818;8.484;2023-05-31T14:47:29;5.00;;;2.00;;
4563;SDS011;2294;51.818;8.484;2023-05-31T14:49:57;3.83;;;1.93;;
4563;SDS011;2294;51.818;8.484;2023-05-31T14:52:23;4.33;;;2.00;;
4563;SDS011;2294;51.818;8.484;2023-05-31T14:54:50;4.83;;;2.27;;
4563;SDS011;2294;51.818;8.484;2023-05-31T14:57:17;3.53;;;1.93;;
4563;SDS011;2294;51.818;8.484;2023-05-31T14:59:44;12.83;;;3.53;;
4563;SDS011;2294;51.818;8.484;2023-05-31T15:02:11;3.43;;;1.70;;
4563;SDS011;2294;51.818;8.484;2023-05-31T15:04:39;7.57;;;1.83;;
4563;SDS011;2294;51.818;8.484;2023-05-31T15:07:07;5.47;;;1.90;;
4563;SDS011;2294;51.818;8.484;2023-05-31T15:09:34;2.40;;;1.70;;
4563;SDS011;2294;51.818;8.484;2023-05-31T15:12:01;5.33;;;2.27;;
4563;SDS011;2294;51.818;8.484;2023-05-31T15:14:28;11.37;;;2.03;;
4563;SDS011;2294;51.818;8.484;2023-05-31T15:16:55;4.90;;;2.00;;
4563;SDS011;2294;51.818;8.484;2023-05-31T15:19:22;8.30;;;2.30;;
4563;SDS011;2294;51.818;8.484;2023-05-31T15:21:50;5.70;;;2.10;;